Terminal Aerodrome Forecast
Issued by NWS Sioux Falls, SD

Home | Current Version | Previous Version | Text Only | Print | Product List | Glossary Off
Versions: 1 2 3 4 5 6 7 8 9 10 11 12

000
FTUS43 KFSD 282300
TAFHON
TAF
KHON 282321Z 2900/2924 36006KT P6SM SCT060
     FM290130 VRB03KT P6SM FEW050
     FM291900 35008KT P6SM SCT090=

USA.gov is the U.S. government's official web portal to all federal, state and local government web resources and services.